Time;durP1;ratioP1;P1;durP2;ratioP2;P2;SDS_P1;SDS_P2;PMS_P1;PMS_P2;Temp;Humidity;BMP_temperature;BMP_pressure;BME280_temperature;BME280_humidity;BME280_pressure;Samples;Min_cycle;Max_cycle;Signal;HPM_P1;HPM_P2
2022/01/21 00:02:04;;;;;;;8.10;2.33;;;4.50;62.50;;;7.51;48.73;102789.31;5032997;28;20198;-61
2022/01/21 00:04:31;;;;;;;6.77;1.90;;;4.50;62.60;;;7.53;48.75;102785.78;5031932;28;20257;-64
2022/01/21 00:06:59;;;;;;;10.87;3.00;;;4.50;62.90;;;7.53;48.88;102787.44;5034147;28;20194;-62
2022/01/21 00:09:26;;;;;;;9.00;2.40;;;4.50;63.10;;;7.55;49.04;102786.50;5033188;28;20196;-61
2022/01/21 00:11:54;;;;;;;9.97;2.80;;;4.50;63.20;;;7.56;48.75;102793.44;5032997;28;20609;-60
2022/01/21 00:14:23;;;;;;;8.67;3.43;;;4.40;63.20;;;7.54;49.09;102796.16;5031475;28;20214;-60
2022/01/21 00:16:50;;;;;;;8.27;2.63;;;4.50;63.60;;;7.53;49.07;102802.34;5032978;28;20705;-62
2022/01/21 00:19:19;;;;;;;10.47;2.30;;;4.40;63.60;;;7.53;49.47;102793.63;5036512;28;20205;-62
2022/01/21 00:30:16;;;;;;;8.93;2.30;;;4.40;65.00;;;7.45;49.69;102776.66;5036459;28;20601;-60
2022/01/21 00:32:46;;;;;;;12.17;2.33;;;4.40;64.30;;;7.44;50.01;102787.25;5034405;28;20211;-62
2022/01/21 00:35:15;;;;;;;7.30;2.27;;;4.40;64.60;;;7.43;50.10;102782.94;5036854;28;20219;-60
2022/01/21 00:37:43;;;;;;;7.50;2.50;;;4.40;64.60;;;7.44;50.24;102787.25;5035828;28;20192;-61
2022/01/21 00:40:16;;;;;;;8.97;2.17;;;4.40;64.70;;;7.45;50.40;102784.53;5054859;28;20533;-60
2022/01/21 00:43:08;;;;;;;10.47;2.70;;;4.40;64.80;;;7.48;49.98;102783.47;5055285;28;20193;-63
2022/01/21 00:45:37;;;;;;;13.73;3.00;;;4.40;64.90;;;7.47;50.13;102780.00;5056988;28;20598;-61
2022/01/21 00:48:05;;;;;;;10.50;3.00;;;4.50;65.50;;;7.48;50.34;102778.25;5055705;28;20207;-62
2022/01/21 00:50:34;;;;;;;9.53;2.37;;;4.40;65.20;;;7.46;50.65;102764.41;5056166;28;20292;-62
2022/01/21 00:53:03;;;;;;;9.80;1.80;;;4.40;65.30;;;7.45;50.47;102763.56;5056809;28;20209;-60
2022/01/21 00:55:30;;;;;;;6.63;1.90;;;4.40;65.30;;;7.43;50.68;102759.38;5045943;28;20207;-60
2022/01/21 00:57:57;;;;;;;8.77;2.37;;;4.40;65.50;;;7.40;50.19;102759.56;5036538;28;20210;-62
2022/01/21 01:00:25;;;;;;;8.17;2.53;;;4.40;65.30;;;7.37;50.91;102754.53;5019266;28;20206;-60
2022/01/21 01:02:54;;;;;;;7.87;2.40;;;4.40;65.70;;;7.34;50.66;102754.75;5036203;28;20560;-61
2022/01/21 01:05:22;;;;;;;6.03;2.17;;;4.40;65.80;;;7.30;50.90;102753.25;5035185;28;20693;-62
2022/01/21 01:07:50;;;;;;;12.47;2.47;;;4.30;65.80;;;7.26;50.95;102754.44;5036144;28;20298;-61
2022/01/21 01:10:24;;;;;;;11.27;2.73;;;4.30;66.00;;;7.25;50.79;102768.47;5036614;28;20704;-61
2022/01/21 01:19:54;;;;;;;6.20;2.30;;;4.30;66.50;;;7.23;51.62;102758.09;5057811;28;20204;-64
2022/01/21 01:21:14;;;;;;;8.03;2.07;;;4.20;67.00;;;7.22;51.50;102760.81;5035345;28;20218;-64
2022/01/21 01:29:13;;;;;;;8.30;2.20;;;4.30;67.20;;;7.25;51.52;102784.19;5034237;28;20230;-61
2022/01/21 01:31:41;;;;;;;7.97;2.20;;;4.30;67.00;;;7.24;51.86;102778.09;5050906;28;20191;-64
2022/01/21 01:34:10;;;;;;;5.93;2.07;;;4.30;67.20;;;7.25;51.98;102773.72;5034400;28;20695;-62
2022/01/21 01:36:38;;;;;;;7.30;2.10;;;4.20;67.30;;;7.25;51.63;102777.16;5035839;28;20194;-63
2022/01/21 01:39:31;;;;;;;5.77;1.93;;;4.20;67.40;;;7.26;51.96;102778.00;5036003;28;20648;-64
2022/01/21 01:50:42;;;;;;;11.63;2.33;;;4.20;67.90;;;7.21;52.23;102782.69;5035648;28;20192;-64
2022/01/21 01:53:10;;;;;;;7.67;1.97;;;4.20;68.10;;;7.27;52.37;102784.91;5035092;28;20214;-61
2022/01/21 01:55:38;;;;;;;6.63;2.07;;;4.30;68.30;;;7.31;52.56;102787.22;5050775;28;20278;-64
2022/01/21 01:58:06;;;;;;;6.17;2.20;;;4.30;68.60;;;7.36;52.75;102787.75;5035585;28;20275;-64
2022/01/21 02:00:33;;;;;;;8.37;2.00;;;4.30;68.70;;;7.41;52.24;102777.81;5045157;28;20201;-63
2022/01/21 02:03:05;;;;;;;6.13;1.90;;;4.40;68.80;;;7.46;52.55;102785.38;5049937;28;20222;-64
2022/01/21 02:05:32;;;;;;;7.37;2.30;;;4.40;68.90;;;7.51;52.43;102778.03;5055273;28;20210;-64
2022/01/21 02:08:01;;;;;;;8.77;2.00;;;4.40;69.00;;;7.56;52.18;102781.16;5055276;28;20259;-64
2022/01/21 02:10:29;;;;;;;5.67;1.53;;;4.40;69.00;;;7.58;52.36;102787.16;5055240;28;20273;-64
2022/01/21 02:13:21;;;;;;;6.37;2.10;;;4.50;69.30;;;7.57;52.35;102774.97;5053505;28;20275;-63
2022/01/21 02:15:55;;;;;;;9.07;2.20;;;4.50;69.20;;;7.57;53.04;102769.75;5052212;28;20305;-62
2022/01/21 02:21:30;;;;;;;10.10;2.33;;;4.50;69.10;;;7.62;53.02;102767.66;5053917;28;20280;-61
2022/01/21 02:24:01;;;;;;;4.83;1.77;;;4.60;69.10;;;7.71;52.98;102782.72;5053451;28;20309;-61
2022/01/21 02:26:29;;;;;;;6.20;1.83;;;4.60;69.10;;;7.78;52.79;102781.38;5053764;28;20196;-60
2022/01/21 02:28:59;;;;;;;9.03;2.43;;;4.70;69.20;;;7.87;52.58;102788.59;5054916;28;20215;-62
2022/01/21 02:31:28;;;;;;;6.50;1.70;;;4.70;69.30;;;7.96;52.84;102785.31;5054644;28;20651;-60
2022/01/21 02:33:55;;;;;;;5.50;1.90;;;4.80;69.50;;;8.03;52.69;102791.00;5052543;28;20222;-61
2022/01/21 02:36:25;;;;;;;7.30;2.03;;;4.80;69.40;;;8.09;52.74;102780.91;5054920;28;20366;-62
2022/01/21 02:38:52;;;;;;;5.43;2.10;;;4.90;69.30;;;8.13;52.63;102776.28;5051890;28;20194;-60
2022/01/21 02:41:20;;;;;;;5.10;1.50;;;4.90;69.30;;;8.17;52.50;102773.34;5053261;28;20192;-62
2022/01/21 02:43:48;;;;;;;4.67;1.93;;;5.00;69.40;;;8.18;52.74;102761.91;5053943;28;20298;-60
2022/01/21 02:46:17;;;;;;;8.13;2.13;;;5.00;69.10;;;8.17;52.49;102757.63;5052959;28;20652;-63
2022/01/21 02:48:45;;;;;;;8.40;1.87;;;5.10;69.10;;;8.18;52.49;102764.53;5052600;28;20653;-61
2022/01/21 02:51:13;;;;;;;10.53;2.30;;;5.10;69.00;;;8.20;52.40;102756.56;5054228;28;20191;-61
2022/01/21 02:56:16;;;;;;;7.67;2.10;;;5.10;68.90;;;8.17;52.48;102783.84;5053473;28;20201;-58
2022/01/21 02:58:46;;;;;;;3.23;1.60;;;5.10;68.80;;;8.19;52.77;102787.19;5036859;28;20229;-60
2022/01/21 03:01:15;;;;;;;3.93;1.43;;;5.10;68.90;;;8.24;52.58;102788.63;5052949;28;20199;-59
2022/01/21 03:03:45;;;;;;;9.50;2.27;;;5.10;68.90;;;8.25;52.73;102791.16;5053588;28;20215;-62
2022/01/21 03:06:16;;;;;;;4.07;1.63;;;5.10;68.90;;;8.27;52.47;102799.81;5053503;28;20206;-60
2022/01/21 03:08:47;;;;;;;7.37;1.87;;;5.10;68.90;;;8.27;52.61;102796.34;5036310;28;20204;-63
2022/01/21 03:11:16;;;;;;;5.97;1.80;;;5.10;68.90;;;8.27;52.56;102791.94;5053174;28;20204;-63
2022/01/21 03:13:44;;;;;;;4.93;1.90;;;5.10;68.80;;;8.26;52.46;102789.38;5053418;28;20214;-63
2022/01/21 03:16:12;;;;;;;5.20;1.60;;;5.20;68.80;;;8.25;52.46;102799.00;5048712;28;20249;-60
2022/01/21 03:18:39;;;;;;;9.60;1.80;;;5.10;68.60;;;8.25;52.77;102800.81;5032769;28;20196;-62
2022/01/21 03:21:09;;;;;;;3.77;1.57;;;5.20;68.80;;;8.27;52.63;102793.72;5032952;28;20544;-63
2022/01/21 03:23:37;;;;;;;5.23;1.37;;;5.20;68.70;;;8.28;52.33;102796.22;5015877;28;20220;-63
2022/01/21 03:26:06;;;;;;;6.63;2.00;;;5.20;68.60;;;8.29;52.47;102791.81;5032929;28;20248;-62
2022/01/21 03:28:33;;;;;;;3.77;1.60;;;5.20;68.50;;;8.31;52.29;102800.41;5033855;28;20269;-62
2022/01/21 03:31:01;;;;;;;5.97;1.53;;;5.20;68.40;;;8.32;52.40;102799.47;5043786;28;20216;-60
2022/01/21 03:33:28;;;;;;;6.00;2.50;;;5.20;68.40;;;8.37;52.46;102800.81;5052809;28;20294;-63
2022/01/21 03:35:55;;;;;;;6.70;2.37;;;5.30;68.50;;;8.42;52.19;102803.09;5053355;28;20193;-63
2022/01/21 03:38:27;;;;;;;7.33;1.67;;;5.20;68.30;;;8.45;52.15;102797.63;5053643;28;20195;-62
2022/01/21 03:40:55;;;;;;;7.10;1.83;;;5.20;68.20;;;8.48;52.01;102807.91;5053571;28;20188;-63
2022/01/21 03:43:24;;;;;;;6.13;2.00;;;5.30;68.40;;;8.50;52.21;102806.03;5052972;28;20211;-61
2022/01/21 03:45:52;;;;;;;5.87;1.83;;;5.30;68.40;;;8.53;52.21;102790.06;5050569;28;20286;-62
2022/01/21 03:48:21;;;;;;;7.53;2.33;;;5.30;68.30;;;8.58;52.09;102793.19;5033523;28;20307;-61
2022/01/21 03:50:49;;;;;;;7.20;2.60;;;5.40;68.40;;;8.57;52.04;102800.22;5033384;28;20223;-61
2022/01/21 03:53:17;;;;;;;7.47;1.70;;;5.40;68.20;;;8.54;52.06;102797.81;5031604;28;20261;-62
2022/01/21 03:55:46;;;;;;;6.30;1.97;;;5.40;68.00;;;8.50;52.15;102795.53;5033460;28;20190;-61
2022/01/21 03:58:14;;;;;;;5.60;1.77;;;5.40;68.00;;;8.45;52.16;102787.16;5033279;28;20196;-62
2022/01/21 04:00:47;;;;;;;7.70;2.17;;;5.40;68.10;;;8.39;52.07;102790.22;5033057;28;20266;-63
2022/01/21 04:03:16;;;;;;;8.60;2.27;;;5.30;68.20;;;8.34;52.20;102787.94;5034170;28;20228;-62
2022/01/21 04:05:43;;;;;;;7.90;1.80;;;5.30;68.50;;;8.30;52.53;102790.84;5031904;28;20228;-63
2022/01/21 04:08:12;;;;;;;5.37;2.10;;;5.30;68.50;;;8.27;52.75;102793.72;5031917;28;20295;-63
2022/01/21 04:10:42;;;;;;;9.93;2.70;;;5.30;68.60;;;8.25;52.84;102790.34;5032554;28;20207;-61
2022/01/21 04:13:18;;;;;;;6.50;1.97;;;5.30;69.20;;;8.23;53.09;102787.78;5032885;28;20774;-61
2022/01/21 04:15:50;;;;;;;4.37;1.63;;;5.20;69.70;;;8.24;53.24;102791.25;5031744;28;20264;-62
2022/01/21 04:18:19;;;;;;;6.70;1.93;;;5.20;70.10;;;8.27;52.94;102798.97;5015915;28;20200;-62
2022/01/21 04:20:49;;;;;;;4.50;1.60;;;5.20;70.20;;;8.30;53.35;102788.22;5033100;28;20657;-62
2022/01/21 04:23:17;;;;;;;4.23;1.63;;;5.20;70.40;;;8.34;53.42;102794.94;5031497;28;20224;-62
2022/01/21 04:25:46;;;;;;;9.03;1.90;;;5.20;70.50;;;8.35;53.34;102792.22;5032821;28;20195;-62
2022/01/21 04:28:13;;;;;;;5.10;1.37;;;5.20;70.60;;;8.35;53.73;102791.38;5031674;28;20224;-63
2022/01/21 04:30:41;;;;;;;3.00;1.90;;;5.20;70.60;;;8.36;53.51;102793.06;5033051;28;20565;-59
2022/01/21 04:33:10;;;;;;;5.27;1.90;;;5.30;70.90;;;8.37;53.53;102794.75;5031422;28;20206;-63
2022/01/21 04:35:39;;;;;;;7.63;2.17;;;5.20;70.80;;;8.40;53.38;102786.63;5042403;28;20194;-57
2022/01/21 04:38:09;;;;;;;10.17;2.43;;;5.30;71.10;;;8.43;53.52;102794.28;5053259;28;20629;-62
2022/01/21 04:40:47;;;;;;;5.00;1.60;;;5.30;71.00;;;8.46;53.31;102800.13;5053065;28;20275;-63
2022/01/21 04:48:48;;;;;;;5.57;1.50;;;5.30;71.00;;;8.45;53.90;102787.16;5051457;28;20237;-61
2022/01/21 04:51:18;;;;;;;5.73;2.03;;;5.30;70.70;;;8.48;53.54;102789.56;5049643;28;20268;-63
2022/01/21 04:53:48;;;;;;;4.17;1.63;;;5.40;71.50;;;8.50;53.73;102790.28;5032393;28;20210;-61
2022/01/21 04:56:17;;;;;;;7.07;1.90;;;5.40;70.60;;;8.53;53.61;102796.16;5033020;28;20280;-63
2022/01/21 04:58:46;;;;;;;4.73;1.47;;;5.40;70.70;;;8.54;53.63;102794.34;5033231;28;20193;-63
2022/01/21 05:01:14;;;;;;;7.17;1.93;;;5.40;70.60;;;8.57;53.47;102797.59;5031450;28;20207;-63
2022/01/21 05:03:45;;;;;;;6.47;1.53;;;5.40;70.40;;;8.61;53.58;102798.19;5031265;28;20246;-63
2022/01/21 05:06:13;;;;;;;5.77;1.50;;;5.50;70.50;;;8.63;53.38;102801.56;5035295;28;20642;-62
2022/01/21 05:09:15;;;;;;;6.40;1.60;;;5.50;70.50;;;8.61;53.60;102804.28;5047612;28;20187;-63
2022/01/21 05:11:37;;;;;;;4.60;1.20;;;5.40;70.30;;;8.59;53.50;102794.84;5053601;28;20216;-62
2022/01/21 05:14:46;;;;;;;4.53;1.63;;;5.50;70.40;;;8.56;53.70;102800.31;5055917;28;20542;-62
2022/01/21 05:17:04;;;;;;;4.50;1.30;;;5.50;70.40;;;8.53;53.68;102796.16;5052228;28;20214;-63
2022/01/21 05:19:33;;;;;;;3.87;1.13;;;5.50;70.40;;;8.54;53.69;102796.97;5055693;28;20196;-63
2022/01/21 05:22:03;;;;;;;8.67;2.00;;;5.50;70.40;;;8.56;53.59;102800.31;5054356;28;20194;-63
2022/01/21 05:24:30;;;;;;;3.90;1.70;;;5.40;70.40;;;8.56;53.50;102792.44;5053732;28;20664;-63
2022/01/21 05:27:00;;;;;;;3.70;2.00;;;5.40;70.50;;;8.58;53.68;102787.94;5055876;28;20194;-63
2022/01/21 05:29:30;;;;;;;5.43;2.27;;;5.50;70.60;;;8.58;53.88;102780.06;5055713;28;20228;-63
2022/01/21 05:31:59;;;;;;;4.70;1.70;;;5.50;70.60;;;8.57;53.85;102776.59;5056045;28;20241;-62
2022/01/21 05:34:27;;;;;;;8.43;2.47;;;5.50;70.50;;;8.58;53.68;102774.81;5053947;28;20223;-60
2022/01/21 05:36:55;;;;;;;7.30;1.87;;;5.50;70.50;;;8.61;53.77;102787.72;5055485;28;20493;-62
2022/01/21 05:39:24;;;;;;;4.77;1.40;;;5.50;70.50;;;8.67;53.58;102787.28;5055682;28;20211;-62
2022/01/21 05:41:53;;;;;;;8.10;1.90;;;5.50;70.60;;;8.74;53.61;102793.75;5036635;28;20609;-61
2022/01/21 05:46:59;;;;;;;6.87;2.13;;;5.60;70.70;;;8.82;53.27;102802.72;5035270;28;20601;-60
2022/01/21 05:49:30;;;;;;;5.07;1.30;;;5.70;70.80;;;8.83;53.61;102800.94;5035370;28;20220;-61
2022/01/21 05:52:04;;;;;;;7.03;1.87;;;5.70;70.80;;;8.83;53.66;102806.22;5035348;28;20616;-62
2022/01/21 05:54:33;;;;;;;4.73;1.57;;;5.70;70.80;;;8.84;53.51;102802.66;5035216;28;20210;-62
2022/01/21 05:57:05;;;;;;;3.90;1.73;;;5.70;71.10;;;8.86;53.50;102798.13;5036253;28;20215;-63
2022/01/21 05:59:32;;;;;;;4.27;1.30;;;5.70;71.30;;;8.85;53.65;102791.19;5035073;28;20222;-63
2022/01/21 06:02:00;;;;;;;5.37;2.13;;;5.70;71.20;;;8.83;53.79;102787.81;5034175;28;20552;-63
2022/01/21 06:04:28;;;;;;;10.20;2.33;;;5.70;71.20;;;8.84;54.16;102800.03;5033894;28;20228;-64
2022/01/21 06:06:55;;;;;;;9.60;2.23;;;5.70;71.40;;;8.86;54.01;102803.38;5017755;28;20213;-64
2022/01/21 06:09:23;;;;;;;8.90;2.50;;;5.70;71.50;;;8.88;53.84;102811.97;5034678;28;20295;-60
2022/01/21 06:11:51;;;;;;;5.23;1.70;;;5.70;71.70;;;8.93;54.00;102814.25;5035089;28;20287;-63
2022/01/21 06:14:19;;;;;;;7.13;2.23;;;5.70;72.00;;;8.97;54.41;102816.53;5035859;28;20285;-61
2022/01/21 06:16:46;;;;;;;6.77;1.70;;;5.70;71.80;;;9.01;53.92;102804.84;5036805;28;20184;-63
2022/01/21 06:19:14;;;;;;;5.80;2.10;;;5.70;72.00;;;9.04;53.91;102807.25;5035465;28;20197;-62
2022/01/21 06:21:41;;;;;;;6.50;2.13;;;5.80;72.10;;;9.06;54.06;102800.09;5035040;28;20183;-62
2022/01/21 06:24:08;;;;;;;6.10;2.20;;;5.80;71.80;;;9.06;53.84;102810.59;5034502;28;20212;-62
2022/01/21 06:26:36;;;;;;;6.20;1.90;;;5.80;71.80;;;9.05;53.79;102815.97;5034804;28;20191;-63
2022/01/21 06:29:05;;;;;;;6.17;1.60;;;5.80;71.80;;;9.04;53.89;102820.38;5035260;28;20572;-63
2022/01/21 06:31:33;;;;;;;13.00;2.60;;;5.80;71.80;;;9.04;53.89;102823.00;5034664;28;20196;-65
2022/01/21 06:34:00;;;;;;;4.30;1.80;;;5.80;71.80;;;9.02;53.96;102813.56;5033861;28;20211;-63
2022/01/21 06:36:28;;;;;;;9.03;2.63;;;5.80;71.90;;;9.02;54.01;102831.94;5034362;28;20221;-61
2022/01/21 06:38:56;;;;;;;9.97;2.13;;;5.80;72.00;;;9.02;54.02;102830.16;5034351;28;20195;-64
2022/01/21 06:41:24;;;;;;;15.13;2.13;;;5.90;72.20;;;9.04;54.03;102833.50;5017502;28;20668;-64
2022/01/21 06:43:51;;;;;;;6.17;2.17;;;5.80;72.10;;;9.01;54.23;102828.47;5033693;28;20281;-63
2022/01/21 06:46:20;;;;;;;5.23;2.03;;;5.80;72.30;;;9.00;54.20;102831.22;5034033;28;20625;-60
2022/01/21 06:48:47;;;;;;;7.10;2.73;;;5.80;73.20;;;8.99;54.58;102846.16;5033104;28;20267;-62
2022/01/21 06:51:15;;;;;;;6.37;1.90;;;5.80;72.40;;;9.00;54.47;102847.84;5032862;28;20282;-63
2022/01/21 06:53:42;;;;;;;8.23;2.33;;;5.80;72.50;;;9.01;54.48;102846.88;5016154;28;20227;-63
2022/01/21 06:56:10;;;;;;;5.63;1.70;;;5.80;72.70;;;9.00;54.61;102847.84;5033753;28;20367;-60
2022/01/21 06:58:37;;;;;;;3.73;1.50;;;5.80;72.80;;;9.00;54.60;102847.84;5016398;28;20204;-63
2022/01/21 07:01:04;;;;;;;5.47;1.73;;;5.80;72.90;;;9.00;54.62;102839.94;5033234;28;20223;-60
2022/01/21 07:03:33;;;;;;;6.17;1.83;;;5.80;72.90;;;8.97;54.71;102841.94;5033458;28;20222;-60
2022/01/21 07:06:01;;;;;;;8.40;2.33;;;5.80;72.80;;;8.96;54.76;102835.03;5033332;28;20664;-64
2022/01/21 07:08:28;;;;;;;5.87;1.63;;;5.80;72.90;;;8.94;54.84;102843.00;5033572;28;20296;-63
2022/01/21 07:10:55;;;;;;;4.57;1.73;;;5.80;73.20;;;8.93;55.07;102846.59;5033162;28;20218;-61
2022/01/21 07:13:23;;;;;;;5.00;2.17;;;5.80;73.40;;;8.94;54.83;102843.00;5031883;28;20227;-62
2022/01/21 07:15:50;;;;;;;7.07;2.00;;;5.80;73.30;;;8.96;55.00;102845.53;5033882;28;20277;-63
2022/01/21 07:18:18;;;;;;;7.27;1.90;;;5.80;73.40;;;8.95;55.27;102842.06;5036197;28;20193;-62
2022/01/21 07:20:47;;;;;;;9.67;2.10;;;5.80;73.40;;;8.94;55.33;102842.19;5034070;28;20190;-63
2022/01/21 07:23:14;;;;;;;7.20;2.00;;;5.80;73.20;;;8.95;55.02;102842.06;5033935;28;20289;-60
2022/01/21 07:25:41;;;;;;;4.30;1.50;;;5.80;73.60;;;8.97;55.00;102845.41;5035085;28;20528;-62
2022/01/21 07:28:09;;;;;;;8.27;2.20;;;5.80;73.50;;;9.00;55.46;102853.09;5033776;28;20267;-63
2022/01/21 07:30:36;;;;;;;6.03;2.27;;;5.80;73.50;;;9.01;55.28;102859.19;5034340;28;20214;-64
2022/01/21 07:33:04;;;;;;;9.07;1.80;;;5.80;73.50;;;9.03;55.08;102866.00;5033548;28;20307;-62
2022/01/21 07:35:31;;;;;;;6.47;2.07;;;5.80;73.50;;;9.06;55.19;102868.38;5034686;28;20186;-62
2022/01/21 07:38:11;;;;;;;4.67;1.47;;;5.80;73.50;;;9.07;55.46;102867.44;5034093;28;20273;-61
2022/01/21 07:40:39;;;;;;;8.27;2.80;;;5.90;73.70;;;9.09;55.37;102873.41;5033228;28;20190;-62
2022/01/21 07:43:07;;;;;;;10.27;2.10;;;5.90;73.80;;;9.08;55.02;102869.09;5032013;28;20208;-62
2022/01/21 07:45:36;;;;;;;8.97;2.17;;;5.90;73.70;;;9.09;55.17;102877.81;5031714;28;20200;-63
2022/01/21 07:48:05;;;;;;;8.17;1.97;;;5.90;73.80;;;9.10;55.37;102875.09;5032995;28;20724;-64
2022/01/21 07:50:34;;;;;;;7.67;2.37;;;5.90;73.80;;;9.11;55.27;102876.75;5033334;28;20301;-62
2022/01/21 07:53:03;;;;;;;5.90;1.87;;;5.90;73.80;;;9.15;55.53;102883.47;5032760;28;20293;-63
2022/01/21 07:55:32;;;;;;;6.93;2.13;;;5.90;73.80;;;9.18;55.31;102883.25;5033239;28;20572;-65
2022/01/21 07:58:00;;;;;;;6.90;2.37;;;5.90;73.80;;;9.19;55.05;102882.31;5033221;28;20195;-62
2022/01/21 08:00:28;;;;;;;6.93;2.80;;;6.00;73.80;;;9.19;55.22;102882.31;5032937;28;20600;-62
2022/01/21 08:02:56;;;;;;;9.17;2.10;;;6.00;73.80;;;9.22;55.29;102881.25;5032575;28;20203;-62
2022/01/21 08:05:30;;;;;;;4.37;1.50;;;6.00;73.80;;;9.23;55.41;102885.53;5033579;28;20190;-63
2022/01/21 08:07:58;;;;;;;5.43;1.80;;;6.00;73.80;;;9.25;55.37;102881.00;5034128;28;20222;-62
2022/01/21 08:10:26;;;;;;;3.90;2.10;;;6.00;73.90;;;9.28;55.14;102878.16;5031110;28;20219;-62
2022/01/21 08:12:56;;;;;;;6.10;1.47;;;6.00;74.00;;;9.31;54.87;102884.03;5042848;28;20211;-65
2022/01/21 08:15:24;;;;;;;9.47;2.13;;;6.00;73.80;;;9.31;55.10;102875.31;5031057;28;20215;-63
2022/01/21 08:17:51;;;;;;;9.97;2.20;;;6.10;73.90;;;9.31;55.23;102877.94;5047791;28;20670;-63
2022/01/21 08:20:19;;;;;;;6.10;1.80;;;6.10;73.90;;;9.31;55.49;102873.53;5045491;28;20814;-61
2022/01/21 08:22:46;;;;;;;7.53;2.00;;;6.10;73.80;;;9.34;55.18;102878.53;5049657;28;20199;-63
2022/01/21 08:25:16;;;;;;;5.73;2.07;;;6.20;74.00;;;9.40;55.63;102877.25;5046878;28;20198;-65
2022/01/21 08:27:45;;;;;;;7.77;2.40;;;6.20;74.00;;;9.46;55.42;102880.25;5050275;28;20537;-63
2022/01/21 08:30:15;;;;;;;6.10;1.83;;;6.20;73.80;;;9.50;54.75;102883.50;5032897;28;20213;-64
2022/01/21 08:32:43;;;;;;;6.43;2.10;;;6.30;73.80;;;9.54;54.97;102879.69;5044208;28;20263;-62
2022/01/21 08:35:11;;;;;;;6.30;2.00;;;6.30;73.70;;;9.56;54.83;102877.78;5045148;28;20200;-64
2022/01/21 08:37:39;;;;;;;4.30;2.30;;;6.30;73.60;;;9.61;54.96;102880.91;5048449;28;20300;-63
2022/01/21 08:40:08;;;;;;;7.67;2.20;;;6.40;73.50;;;9.63;55.00;102881.63;5049878;28;20663;-61
2022/01/21 08:42:36;;;;;;;4.13;1.73;;;6.40;73.50;;;9.65;55.10;102882.34;5051481;28;20219;-64
2022/01/21 08:45:05;;;;;;;5.40;1.77;;;6.40;73.40;;;9.67;55.19;102890.13;5035779;28;20314;-61
2022/01/21 08:47:34;;;;;;;6.43;1.80;;;6.50;73.30;;;9.68;55.17;102891.78;5053159;28;20217;-62
2022/01/21 08:50:06;;;;;;;5.80;1.67;;;6.50;73.10;;;9.74;54.89;102886.06;5051951;28;20679;-62
2022/01/21 08:52:37;;;;;;;6.17;1.97;;;6.50;73.20;;;9.87;55.31;102892.06;5053038;28;20202;-62
2022/01/21 08:55:07;;;;;;;8.10;2.10;;;6.60;73.70;;;10.01;55.38;102895.31;5051224;28;20301;-63
2022/01/21 08:57:37;;;;;;;5.73;2.00;;;6.70;74.00;;;10.15;55.11;102891.66;5051561;28;20276;-63
2022/01/21 09:00:08;;;;;;;6.37;2.10;;;6.80;73.80;;;10.27;54.52;102895.97;5052551;28;20187;-64
2022/01/21 09:02:37;;;;;;;7.77;2.57;;;6.90;73.70;;;10.36;54.03;102895.28;5050714;28;20205;-62
2022/01/21 09:05:05;;;;;;;6.40;2.10;;;7.00;73.40;;;10.43;54.38;102899.09;5036147;28;20245;-61
2022/01/21 09:07:33;;;;;;;5.07;2.10;;;7.10;72.70;;;10.46;53.94;102906.75;5051097;28;20201;-59
2022/01/21 09:10:02;;;;;;;6.83;2.57;;;7.10;72.60;;;10.48;53.76;102904.84;5032919;28;20666;-61
2022/01/21 09:12:30;;;;;;;4.87;2.37;;;7.20;72.10;;;10.48;54.10;102896.97;5049295;28;20190;-62
2022/01/21 09:14:58;;;;;;;6.77;1.97;;;7.20;71.80;;;10.51;54.11;102899.31;5050329;28;20260;-61
2022/01/21 09:17:27;;;;;;;5.43;2.10;;;7.30;71.80;;;10.58;53.43;102899.66;5047452;28;20281;-60
2022/01/21 09:19:55;;;;;;;6.87;1.97;;;7.30;72.00;;;10.60;53.71;102903.88;5050026;28;20570;-60
2022/01/21 09:22:23;;;;;;;6.27;1.50;;;7.30;71.70;;;10.60;53.36;102895.97;5048782;28;20186;-62
2022/01/21 09:24:50;;;;;;;5.23;1.80;;;7.30;71.60;;;10.63;53.11;102903.63;5049415;28;20221;-60
2022/01/21 09:27:17;;;;;;;5.07;1.63;;;7.40;71.60;;;10.71;52.95;102898.59;5051134;28;20193;-62
2022/01/21 09:29:45;;;;;;;5.83;2.67;;;7.40;71.30;;;10.80;53.44;102908.41;5049785;28;20213;-60
2022/01/21 09:32:12;;;;;;;5.57;2.50;;;7.50;71.40;;;10.93;53.37;102915.31;5052867;28;20668;-63
2022/01/21 09:34:39;;;;;;;6.63;1.77;;;7.50;72.00;;;11.03;53.18;102918.91;5049990;28;20569;-61
2022/01/21 09:37:08;;;;;;;3.07;1.40;;;7.60;71.40;;;11.12;52.60;102921.63;5047715;28;20202;-61
2022/01/21 09:39:36;;;;;;;11.03;4.53;;;7.70;71.40;;;11.19;52.57;102921.97;5049449;28;20674;-61
2022/01/21 09:42:06;;;;;;;5.47;2.03;;;7.70;71.40;;;11.24;52.19;102922.44;5050871;28;20552;-63
2022/01/21 09:44:34;;;;;;;7.70;2.63;;;7.80;70.80;;;11.27;52.74;102919.53;5033109;28;20214;-62
2022/01/21 09:47:04;;;;;;;9.43;1.90;;;7.90;70.60;;;11.40;52.56;102923.69;5048312;28;20524;-63
2022/01/21 09:49:34;;;;;;;5.27;2.17;;;7.90;70.60;;;11.53;52.24;102926.13;5046190;28;20205;-64
2022/01/21 09:52:06;;;;;;;4.63;1.87;;;8.00;70.80;;;11.68;51.70;102918.78;5050694;28;20254;-62
2022/01/21 09:54:47;;;;;;;6.60;2.27;;;8.10;70.70;;;11.82;51.58;102927.22;5047385;28;20649;-61
2022/01/21 09:57:20;;;;;;;5.07;2.50;;;8.30;70.60;;;11.85;51.23;102932.25;5066188;28;20211;-63
2022/01/21 09:59:50;;;;;;;8.80;2.77;;;8.40;70.00;;;11.79;50.94;102914.28;5045907;28;20220;-60
2022/01/21 10:02:20;;;;;;;3.93;2.10;;;8.40;69.20;;;11.71;51.40;102922.03;5049672;28;20230;-63
2022/01/21 10:04:51;;;;;;;6.97;2.60;;;8.40;68.80;;;11.65;51.62;102919.84;5045697;28;20228;-63
2022/01/21 10:07:21;;;;;;;9.20;2.40;;;8.40;68.90;;;11.68;51.68;102935.47;5049212;28;20268;-62
2022/01/21 10:09:52;;;;;;;8.13;2.50;;;8.40;69.30;;;11.76;51.82;102948.84;5049408;28;20266;-64
2022/01/21 10:12:23;;;;;;;6.10;2.30;;;8.40;69.60;;;11.86;51.31;102939.19;5047310;28;20211;-63
2022/01/21 10:14:50;;;;;;;9.10;2.40;;;8.40;69.60;;;11.92;51.14;102932.56;5046106;28;20225;-61
2022/01/21 10:17:38;;;;;;;4.93;1.63;;;8.50;69.80;;;11.93;51.28;102929.78;5050617;28;20194;-62
2022/01/21 10:20:22;;;;;;;6.33;1.93;;;8.50;69.50;;;11.94;50.88;102931.47;5047302;28;20634;-65
2022/01/21 10:22:59;;;;;;;5.90;2.00;;;8.60;69.40;;;11.95;51.07;102927.03;5048347;28;20273;-64
2022/01/21 10:25:28;;;;;;;3.97;1.87;;;8.60;69.10;;;12.02;51.24;102926.41;5049509;28;20200;-62
2022/01/21 10:28:10;;;;;;;5.83;2.33;;;8.60;69.20;;;12.11;50.66;102930.88;5050743;28;20202;-62
2022/01/21 10:30:39;;;;;;;7.73;2.27;;;8.70;69.30;;;12.27;50.83;102933.03;5049793;28;20380;-62
2022/01/21 10:33:20;;;;;;;9.87;2.30;;;8.70;69.30;;;12.35;50.32;102937.69;5047501;28;20238;-63
2022/01/21 10:35:50;;;;;;;8.73;2.93;;;8.80;69.00;;;12.41;50.70;102937.16;5051096;28;20197;-63
2022/01/21 10:38:28;;;;;;;9.17;2.43;;;8.80;69.00;;;12.44;50.25;102939.53;5050844;28;20193;-65
2022/01/21 10:41:07;;;;;;;8.73;3.23;;;8.90;68.90;;;12.41;50.33;102939.81;5049531;28;20236;-64
2022/01/21 10:43:35;;;;;;;9.60;3.00;;;8.90;68.70;;;12.43;50.34;102937.88;5047652;28;20225;-63
2022/01/21 10:46:03;;;;;;;9.03;2.97;;;8.90;68.30;;;12.37;50.29;102938.38;5049429;28;20201;-62
2022/01/21 10:48:57;;;;;;;9.13;4.27;;;8.90;68.10;;;12.24;50.24;102943.91;5050779;28;20190;-63
2022/01/21 10:51:28;;;;;;;8.83;2.80;;;8.90;68.10;;;12.21;50.74;102945.00;5050687;28;20220;-65
2022/01/21 10:53:58;;;;;;;8.43;2.37;;;8.90;68.40;;;12.19;50.59;102941.63;5050044;28;21822;-63
2022/01/21 10:56:29;;;;;;;5.67;2.87;;;8.90;68.80;;;12.21;51.01;102949.44;5048822;28;20288;-65
2022/01/21 10:58:59;;;;;;;10.60;3.30;;;8.90;68.90;;;12.20;50.99;102959.16;5049220;28;20190;-63
2022/01/21 11:01:30;;;;;;;8.10;3.20;;;8.80;68.60;;;12.18;51.10;102955.81;5049869;28;20214;-65
2022/01/21 11:04:04;;;;;;;11.50;3.90;;;8.80;69.00;;;12.16;51.27;102957.75;5050058;28;20297;-63
2022/01/21 11:06:39;;;;;;;5.37;2.10;;;8.80;69.20;;;12.12;50.87;102958.94;5050323;28;20196;-61
2022/01/21 11:09:18;;;;;;;12.63;6.60;;;8.80;68.80;;;12.05;51.24;102965.72;5049331;28;20668;-61
2022/01/21 11:11:49;;;;;;;10.07;3.43;;;8.80;69.30;;;12.04;51.56;102957.94;5049652;28;20297;-61
2022/01/21 11:14:19;;;;;;;8.13;2.70;;;8.70;69.50;;;12.01;51.45;102955.53;5048609;28;20237;-65
2022/01/21 11:16:48;;;;;;;8.53;3.00;;;8.70;69.70;;;12.01;51.60;102947.63;5043372;28;20197;-63